Time;durP1;ratioP1;P1;durP2;ratioP2;P2;SDS_P1;SDS_P2;PMS_P1;PMS_P2;Temp;Humidity;BMP_temperature;BMP_pressure;BME280_temperature;BME280_humidity;BME280_pressure;Samples;Min_cycle;Max_cycle;Signal;HPM_P1;HPM_P2
2021/09/13 00:01:04;;;;;;;0.00;0.00;;;;;;;;;;10496795;28;20067;-62
2021/09/13 00:06:08;;;;;;;0.00;0.00;;;;;;;;;;10513472;28;20040;-62
2021/09/13 00:11:11;;;;;;;0.00;0.00;;;;;;;;;;10513444;28;20186;-61
2021/09/13 00:16:19;;;;;;;0.00;0.00;;;;;;;;;;10513740;28;20960;-62
2021/09/13 00:21:24;;;;;;;0.00;0.00;;;;;;;;;;10513916;28;20047;-62
2021/09/13 00:26:28;;;;;;;0.00;0.00;;;;;;;;;;10507437;28;20044;-62
2021/09/13 00:31:32;;;;;;;0.00;0.00;;;;;;;;;;10512906;28;20047;-62
2021/09/13 00:36:35;;;;;;;0.00;0.00;;;;;;;;;;10496556;28;20059;-62
2021/09/13 00:41:40;;;;;;;0.00;0.00;;;;;;;;;;10514297;28;20513;-61
2021/09/13 00:46:45;;;;;;;0.00;0.00;;;;;;;;;;10495100;28;20072;-62
2021/09/13 00:51:49;;;;;;;0.00;0.00;;;;;;;;;;10511751;28;20052;-61
2021/09/13 00:56:52;;;;;;;0.00;0.00;;;;;;;;;;10497807;28;20818;-61
2021/09/13 01:01:56;;;;;;;0.00;0.00;;;;;;;;;;10499915;28;20059;-61
2021/09/13 01:07:00;;;;;;;0.00;0.00;;;;;;;;;;10502821;28;20051;-62
2021/09/13 01:12:03;;;;;;;0.00;0.00;;;;;;;;;;10494320;28;20697;-62
2021/09/13 01:17:07;;;;;;;0.00;0.00;;;;;;;;;;10492962;28;20064;-62
2021/09/13 01:22:13;;;;;;;0.00;0.00;;;;;;;;;;10492970;28;20052;-62
2021/09/13 01:27:32;;;;;;;0.00;0.00;;;;;;;;;;10505170;28;20052;-62
2021/09/13 01:32:35;;;;;;;0.00;0.00;;;;;;;;;;10503795;28;20059;-62
2021/09/13 01:37:38;;;;;;;0.00;0.00;;;;;;;;;;10503775;28;20043;-62
2021/09/13 01:42:47;;;;;;;0.00;0.00;;;;;;;;;;10502530;28;20083;-62
2021/09/13 01:47:51;;;;;;;0.00;0.00;;;;;;;;;;10505632;28;20047;-62
2021/09/13 01:52:55;;;;;;;0.00;0.00;;;;;;;;;;10508568;28;20067;-62
2021/09/13 01:58:00;;;;;;;0.00;0.00;;;;;;;;;;10504901;28;20054;-62
2021/09/13 02:03:03;;;;;;;0.00;0.00;;;;;;;;;;10499340;28;20055;-62
2021/09/13 02:08:17;;;;;;;0.10;0.10;;;;;;;;;;10502350;28;20068;-61
2021/09/13 02:13:22;;;;;;;0.10;0.10;;;;;;;;;;10500352;28;20048;-62
2021/09/13 02:18:25;;;;;;;0.20;0.17;;;;;;;;;;10501116;28;20048;-62
2021/09/13 02:23:30;;;;;;;0.10;0.10;;;;;;;;;;10530404;28;20046;-62
2021/09/13 02:28:40;;;;;;;0.10;0.10;;;;;;;;;;10498305;28;20483;-62
2021/09/13 02:33:43;;;;;;;0.10;0.10;;;;;;;;;;10499058;28;20051;-62
2021/09/13 02:38:47;;;;;;;0.45;0.35;;;;;;;;;;10498570;28;20517;-61
2021/09/13 02:43:52;;;;;;;0.30;0.30;;;;;;;;;;10498608;28;20052;-62
2021/09/13 02:48:55;;;;;;;0.10;0.10;;;;;;;;;;10500226;28;20414;-62
2021/09/13 02:53:59;;;;;;;0.20;0.20;;;;;;;;;;10497925;28;20517;-62
2021/09/13 02:59:03;;;;;;;0.10;0.10;;;;;;;;;;10505000;28;20040;-62
2021/09/13 03:04:07;;;;;;;0.10;0.10;;;;;;;;;;10496201;28;20142;-62
2021/09/13 03:09:10;;;;;;;0.10;0.10;;;;;;;;;;10497544;28;20044;-61
2021/09/13 03:14:15;;;;;;;0.30;0.20;;;;;;;;;;10501604;28;20074;-62
2021/09/13 03:19:18;;;;;;;0.15;0.10;;;;;;;;;;10501778;28;20067;-62
2021/09/13 03:24:22;;;;;;;0.10;0.10;;;;;;;;;;10498514;28;20838;-62
2021/09/13 03:29:27;;;;;;;0.00;0.00;;;;;;;;;;10528209;28;20052;-61
2021/09/13 03:34:30;;;;;;;0.10;0.10;;;;;;;;;;10494767;28;20128;-61
2021/09/13 03:39:34;;;;;;;0.10;0.05;;;;;;;;;;10498989;28;20529;-61
2021/09/13 03:44:39;;;;;;;0.10;0.10;;;;;;;;;;10496835;28;20560;-61
2021/09/13 03:50:01;;;;;;;0.00;0.00;;;;;;;;;;10511667;28;20048;-61
2021/09/13 03:55:05;;;;;;;0.00;0.00;;;;;;;;;;10492549;28;20044;-61
2021/09/13 04:00:10;;;;;;;0.00;0.00;;;;;;;;;;10493796;28;20093;-61
2021/09/13 04:05:19;;;;;;;0.00;0.00;;;;;;;;;;10511268;28;21084;-61
2021/09/13 04:10:36;;;;;;;0.10;0.10;;;;;;;;;;10492862;28;20161;-61
2021/09/13 04:15:54;;;;;;;0.00;0.00;;;;;;;;;;10493531;28;20181;-61
2021/09/13 04:21:23;;;;;;;0.00;0.00;;;;;;;;;;10506109;28;20138;-61
2021/09/13 04:26:54;;;;;;;0.08;0.08;;;;;;;;;;10524579;28;20055;-61
2021/09/13 04:32:13;;;;;;;0.00;0.00;;;;;;;;;;10498072;28;20405;-61
2021/09/13 04:37:39;;;;;;;0.10;0.10;;;;;;;;;;10503793;28;20084;-61
2021/09/13 04:43:02;;;;;;;0.00;0.00;;;;;;;;;;10497870;28;20055;-61
2021/09/13 04:48:21;;;;;;;0.10;0.10;;;;;;;;;;10527642;27;20044;-61
2021/09/13 04:53:34;;;;;;;0.32;0.30;;;;;;;;;;10509798;28;20444;-61
2021/09/13 04:58:37;;;;;;;0.60;0.45;;;;;;;;;;10497471;28;20047;-61
2021/09/13 05:03:41;;;;;;;0.70;0.50;;;;;;;;;;10522872;28;20048;-61
2021/09/13 05:08:44;;;;;;;0.35;0.30;;;;;;;;;;10523874;28;20517;-61
2021/09/13 05:13:53;;;;;;;0.60;0.50;;;;;;;;;;10494861;28;20056;-61
2021/09/13 05:18:57;;;;;;;0.17;0.15;;;;;;;;;;10499331;28;20089;-60
2021/09/13 05:24:00;;;;;;;0.20;0.20;;;;;;;;;;10497653;28;20056;-61
2021/09/13 05:29:03;;;;;;;0.00;0.00;;;;;;;;;;10495478;28;20047;-61
2021/09/13 05:34:07;;;;;;;0.00;0.00;;;;;;;;;;10495391;28;20097;-61
2021/09/13 05:39:11;;;;;;;0.00;0.00;;;;;;;;;;10495229;28;20959;-64
2021/09/13 05:44:35;;;;;;;0.00;0.00;;;;;;;;;;10491376;28;20064;-61
2021/09/13 05:49:39;;;;;;;0.00;0.00;;;;;;;;;;10494504;28;20047;-63
2021/09/13 05:54:49;;;;;;;0.00;0.00;;;;;;;;;;10493299;28;20408;-61
2021/09/13 05:59:53;;;;;;;0.00;0.00;;;;;;;;;;10491885;28;20094;-61
2021/09/13 06:05:00;;;;;;;0.00;0.00;;;;;;;;;;10490864;28;20747;-62
2021/09/13 06:10:03;;;;;;;0.00;0.00;;;;;;;;;;10510586;28;20047;-61
2021/09/13 06:15:12;;;;;;;0.00;0.00;;;;;;;;;;10511222;28;20047;-61
2021/09/13 06:20:22;;;;;;;0.00;0.00;;;;;;;;;;10501918;28;20178;-62
2021/09/13 06:25:26;;;;;;;0.00;0.00;;;;;;;;;;10504657;28;20093;-61
2021/09/13 06:30:29;;;;;;;0.00;0.00;;;;;;;;;;10501102;28;20051;-60
2021/09/13 06:35:37;;;;;;;0.00;0.00;;;;;;;;;;10503735;28;20052;-61
2021/09/13 06:40:46;;;;;;;0.00;0.00;;;;;;;;;;10497394;28;20113;-62
2021/09/13 06:45:57;;;;;;;0.00;0.00;;;;;;;;;;10502997;28;20048;-62
2021/09/13 06:51:02;;;;;;;0.00;0.00;;;;;;;;;;10499218;28;20851;-62
2021/09/13 06:56:05;;;;;;;0.00;0.00;;;;;;;;;;10511786;28;20501;-62
2021/09/13 07:01:07;;;;;;;0.00;0.00;;;;;;;;;;10514578;28;20211;-62
2021/09/13 07:06:12;;;;;;;0.00;0.00;;;;;;;;;;10496087;28;20051;-61
2021/09/13 07:11:16;;;;;;;0.00;0.00;;;;;;;;;;10498240;28;20052;-61
2021/09/13 07:16:20;;;;;;;0.00;0.00;;;;;;;;;;10513180;28;20036;-62
2021/09/13 07:21:25;;;;;;;0.00;0.00;;;;;;;;;;10514017;28;20048;-62
2021/09/13 07:26:28;;;;;;;0.00;0.00;;;;;;;;;;10510372;28;20047;-62
2021/09/13 07:31:31;;;;;;;0.00;0.00;;;;;;;;;;10514074;28;20186;-62
2021/09/13 07:36:35;;;;;;;0.00;0.00;;;;;;;;;;10516769;28;20052;-62
2021/09/13 07:41:38;;;;;;;0.00;0.00;;;;;;;;;;10511849;28;20229;-62
2021/09/13 07:46:40;;;;;;;0.00;0.00;;;;;;;;;;10513277;28;20040;-62
2021/09/13 07:51:45;;;;;;;0.00;0.00;;;;;;;;;;10514107;28;20047;-62
2021/09/13 07:56:47;;;;;;;0.00;0.00;;;;;;;;;;10510818;28;20043;-62
2021/09/13 08:01:50;;;;;;;0.00;0.00;;;;;;;;;;10510590;28;20500;-62
2021/09/13 08:06:55;;;;;;;0.00;0.00;;;;;;;;;;10511734;28;20409;-62
2021/09/13 08:11:57;;;;;;;0.00;0.00;;;;;;;;;;10511764;28;20058;-62
2021/09/13 08:17:00;;;;;;;0.00;0.00;;;;;;;;;;10527490;28;20067;-62
2021/09/13 08:22:05;;;;;;;0.00;0.00;;;;;;;;;;10511843;28;20821;-62
2021/09/13 08:27:08;;;;;;;0.00;0.00;;;;;;;;;;10512506;28;20053;-62
2021/09/13 08:32:10;;;;;;;0.00;0.00;;;;;;;;;;10489920;28;20130;-62
2021/09/13 08:37:15;;;;;;;0.00;0.00;;;;;;;;;;10513024;28;20042;-62
2021/09/13 08:42:17;;;;;;;0.00;0.00;;;;;;;;;;10512346;28;20134;-63
2021/09/13 08:47:25;;;;;;;0.00;0.00;;;;;;;;;;10500303;28;20452;-63
2021/09/13 08:52:29;;;;;;;0.00;0.00;;;;;;;;;;10511113;28;20040;-63
2021/09/13 08:57:33;;;;;;;0.00;0.00;;;;;;;;;;10500682;28;20139;-62
2021/09/13 09:02:39;;;;;;;0.00;0.00;;;;;;;;;;10509015;28;20440;-62
2021/09/13 09:07:50;;;;;;;0.00;0.00;;;;;;;;;;10512055;28;20040;-63
2021/09/13 09:12:58;;;;;;;0.00;0.00;;;;;;;;;;10511378;28;20048;-62
2021/09/13 09:18:01;;;;;;;0.00;0.00;;;;;;;;;;10512844;28;20046;-63
2021/09/13 09:23:06;;;;;;;0.00;0.00;;;;;;;;;;10510065;28;20070;-62
2021/09/13 09:28:12;;;;;;;0.00;0.00;;;;;;;;;;10512046;28;20044;-62
2021/09/13 09:33:15;;;;;;;0.00;0.00;;;;;;;;;;10510167;28;20109;-62
2021/09/13 09:38:30;;;;;;;0.00;0.00;;;;;;;;;;10513716;28;20637;-62
2021/09/13 09:43:47;;;;;;;0.00;0.00;;;;;;;;;;10494523;28;20044;-63
2021/09/13 09:48:50;;;;;;;0.00;0.00;;;;;;;;;;10523059;28;20118;-63
2021/09/13 09:53:54;;;;;;;0.00;0.00;;;;;;;;;;10523874;28;20048;-62
2021/09/13 09:58:58;;;;;;;0.00;0.00;;;;;;;;;;10516582;28;20048;-63
2021/09/13 10:04:13;;;;;;;0.00;0.00;;;;;;;;;;10519119;28;20781;-63
2021/09/13 10:09:18;;;;;;;0.00;0.00;;;;;;;;;;10515048;28;20109;-62
2021/09/13 10:14:22;;;;;;;0.00;0.00;;;;;;;;;;10519009;28;20260;-62
2021/09/13 10:19:25;;;;;;;0.00;0.00;;;;;;;;;;10518609;28;20032;-62
2021/09/13 10:24:31;;;;;;;0.00;0.00;;;;;;;;;;10518143;28;20047;-60
2021/09/13 10:29:34;;;;;;;0.00;0.00;;;;;;;;;;10517064;28;20044;-61
2021/09/13 10:34:47;;;;;;;0.00;0.00;;;;;;;;;;10519892;28;20127;-61
2021/09/13 10:39:58;;;;;;;0.00;0.00;;;;;;;;;;10513203;28;20499;-61
2021/09/13 10:45:09;;;;;;;0.00;0.00;;;;;;;;;;10517813;28;20240;-62
2021/09/13 10:50:12;;;;;;;0.00;0.00;;;;;;;;;;10517895;28;20474;-62
2021/09/13 10:55:23;;;;;;;0.00;0.00;;;;;;;;;;10516852;28;20036;-62
2021/09/13 11:00:26;;;;;;;;;;;;;;;;;;10518263;28;20044;-62
2021/09/13 11:05:31;;;;;;;0.00;0.00;;;;;;;;;;10516836;28;19920;-62
2021/09/13 11:10:45;;;;;;;0.00;0.00;;;;;;;;;;10528286;28;20044;-62
2021/09/13 11:15:48;;;;;;;0.00;0.00;;;;;;;;;;10501688;28;20744;-62
2021/09/13 11:20:55;;;;;;;0.00;0.00;;;;;;;;;;10516994;28;20079;-62
2021/09/13 11:25:59;;;;;;;0.00;0.00;;;;;;;;;;10516003;28;20063;-62
2021/09/13 11:31:05;;;;;;;0.10;0.00;;;;;;;;;;10512029;28;21018;-62
2021/09/13 11:36:08;;;;;;;0.00;0.00;;;;;;;;;;10519931;28;20054;-62
2021/09/13 11:41:15;;;;;;;0.00;0.00;;;;;;;;;;10515161;28;20044;-62
2021/09/13 11:46:20;;;;;;;0.00;0.00;;;;;;;;;;10515607;28;20044;-62
2021/09/13 11:51:24;;;;;;;0.00;0.00;;;;;;;;;;10517364;28;20061;-62
2021/09/13 11:56:28;;;;;;;0.00;0.00;;;;;;;;;;10514770;28;20056;-62
2021/09/13 12:01:31;;;;;;;0.00;0.00;;;;;;;;;;10514781;28;20528;-62
2021/09/13 12:06:35;;;;;;;0.00;0.00;;;;;;;;;;10514319;28;20040;-62
2021/09/13 12:11:59;;;;;;;0.00;0.00;;;;;;;;;;10513507;28;20056;-62
2021/09/13 12:17:05;;;;;;;0.00;0.00;;;;;;;;;;10511874;28;20093;-62
2021/09/13 12:22:09;;;;;;;0.00;0.00;;;;;;;;;;10500975;28;20448;-62
2021/09/13 12:27:24;;;;;;;0.00;0.00;;;;;;;;;;10514254;28;20075;-61
2021/09/13 12:32:28;;;;;;;0.00;0.00;;;;;;;;;;10511818;28;20046;-61
2021/09/13 12:37:37;;;;;;;0.00;0.00;;;;;;;;;;10516028;28;20138;-61
2021/09/13 12:42:55;;;;;;;0.00;0.00;;;;;;;;;;10511127;28;20501;-62
2021/09/13 12:47:58;;;;;;;0.00;0.00;;;;;;;;;;10513552;28;20036;-62
2021/09/13 12:53:02;;;;;;;0.00;0.00;;;;;;;;;;10513239;28;20555;-62
2021/09/13 12:58:20;;;;;;;0.00;0.00;;;;;;;;;;10512144;28;20036;-63
2021/09/13 13:03:24;;;;;;;0.00;0.00;;;;;;;;;;10512599;28;20947;-63
2021/09/13 13:08:29;;;;;;;0.00;0.00;;;;;;;;;;10511758;28;20036;-62
2021/09/13 13:13:33;;;;;;;0.00;0.00;;;;;;;;;;10512852;28;20134;-63
2021/09/13 13:18:39;;;;;;;0.00;0.00;;;;;;;;;;10509645;28;20409;-63
2021/09/13 13:23:42;;;;;;;0.00;0.00;;;;;;;;;;10522480;28;20060;-63
2021/09/13 13:28:45;;;;;;;0.00;0.00;;;;;;;;;;10520619;28;20040;-63
2021/09/13 13:33:49;;;;;;;0.00;0.00;;;;;;;;;;10497223;28;20052;-63
2021/09/13 13:38:52;;;;;;;0.00;0.00;;;;;;;;;;10523904;28;20118;-63
2021/09/13 13:43:55;;;;;;;0.00;0.00;;;;;;;;;;10516894;28;20048;-63
2021/09/13 13:48:59;;;;;;;0.00;0.00;;;;;;;;;;10523577;28;20185;-62
2021/09/13 13:54:02;;;;;;;0.00;0.00;;;;;;;;;;10516654;28;20567;-62
2021/09/13 13:59:05;;;;;;;0.00;0.00;;;;;;;;;;10519562;28;20414;-62
2021/09/13 14:04:09;;;;;;;0.00;0.00;;;;;;;;;;10518090;28;20097;-62
2021/09/13 14:09:12;;;;;;;0.00;0.00;;;;;;;;;;10518761;28;20101;-62
2021/09/13 14:14:17;;;;;;;0.00;0.00;;;;;;;;;;10516503;28;20043;-62
2021/09/13 14:19:22;;;;;;;0.00;0.00;;;;;;;;;;10515876;28;20051;-62
2021/09/13 14:24:25;;;;;;;0.00;0.00;;;;;;;;;;10497726;28;20071;-63
2021/09/13 14:29:27;;;;;;;0.00;0.00;;;;;;;;;;10516483;28;20052;-63
2021/09/13 14:34:35;;;;;;;0.00;0.00;;;;;;;;;;10517797;28;20275;-61
2021/09/13 14:39:40;;;;;;;0.00;0.00;;;;;;;;;;10495463;28;20048;-61
2021/09/13 14:44:43;;;;;;;0.00;0.00;;;;;;;;;;10517156;28;20548;-62
2021/09/13 14:49:47;;;;;;;0.00;0.00;;;;;;;;;;10515225;28;20044;-62
2021/09/13 14:54:51;;;;;;;0.00;0.00;;;;;;;;;;10514521;28;20040;-62
2021/09/13 14:59:54;;;;;;;0.00;0.00;;;;;;;;;;10518041;28;20050;-62
2021/09/13 15:05:01;;;;;;;0.00;0.00;;;;;;;;;;10500085;28;20051;-61
2021/09/13 15:10:04;;;;;;;0.00;0.00;;;;;;;;;;10495385;28;20058;-61
2021/09/13 15:15:08;;;;;;;0.00;0.00;;;;;;;;;;10513579;28;20562;-62
2021/09/13 15:20:13;;;;;;;0.00;0.00;;;;;;;;;;10511870;28;20397;-61
2021/09/13 15:25:16;;;;;;;0.00;0.00;;;;;;;;;;10512973;28;20044;-61
2021/09/13 15:30:21;;;;;;;0.00;0.00;;;;;;;;;;10498795;28;20075;-62
2021/09/13 15:35:26;;;;;;;0.00;0.00;;;;;;;;;;10514721;28;20044;-61
2021/09/13 15:40:29;;;;;;;0.00;0.00;;;;;;;;;;10497936;28;21105;-61
2021/09/13 15:45:32;;;;;;;0.00;0.00;;;;;;;;;;10517642;28;20040;-62
2021/09/13 15:50:37;;;;;;;0.00;0.00;;;;;;;;;;10515778;28;20109;-62
2021/09/13 15:55:41;;;;;;;0.00;0.00;;;;;;;;;;10514944;28;20060;-62
2021/09/13 16:00:47;;;;;;;0.00;0.00;;;;;;;;;;10512878;28;20426;-63
2021/09/13 16:05:52;;;;;;;0.00;0.00;;;;;;;;;;10515943;28;20379;-63
2021/09/13 16:10:58;;;;;;;0.00;0.00;;;;;;;;;;10514218;28;20044;-62
2021/09/13 16:16:01;;;;;;;0.00;0.00;;;;;;;;;;10515676;28;20048;-61
2021/09/13 16:21:07;;;;;;;0.00;0.00;;;;;;;;;;10513553;28;20036;-62
2021/09/13 16:26:12;;;;;;;0.00;0.00;;;;;;;;;;10502364;28;20498;-63
2021/09/13 16:31:15;;;;;;;0.00;0.00;;;;;;;;;;10510998;28;20070;-63
2021/09/13 16:36:20;;;;;;;0.00;0.00;;;;;;;;;;10516828;28;20043;-61
2021/09/13 16:41:38;;;;;;;0.00;0.00;;;;;;;;;;10491329;28;20135;-61
2021/09/13 16:46:41;;;;;;;0.00;0.00;;;;;;;;;;10511341;28;20067;-63
2021/09/13 16:51:45;;;;;;;0.00;0.00;;;;;;;;;;10515369;28;20078;-62
2021/09/13 16:56:48;;;;;;;0.00;0.00;;;;;;;;;;10512451;28;20044;-62
2021/09/13 17:01:51;;;;;;;0.00;0.00;;;;;;;;;;10512800;28;20032;-63
2021/09/13 17:06:55;;;;;;;0.00;0.00;;;;;;;;;;10496920;28;20098;-63
2021/09/13 17:11:58;;;;;;;0.00;0.00;;;;;;;;;;10511347;28;20122;-64
2021/09/13 17:17:01;;;;;;;0.00;0.00;;;;;;;;;;10494668;28;20367;-63
2021/09/13 17:22:05;;;;;;;0.00;0.00;;;;;;;;;;10514646;28;20155;-61
2021/09/13 17:27:08;;;;;;;0.00;0.00;;;;;;;;;;10512136;28;20487;-62
2021/09/13 17:32:12;;;;;;;0.10;0.00;;;;;;;;;;10506494;28;20040;-62
2021/09/13 17:37:16;;;;;;;0.00;0.00;;;;;;;;;;10512831;28;20147;-61
2021/09/13 17:42:19;;;;;;;0.00;0.00;;;;;;;;;;10512046;28;20048;-62
2021/09/13 17:47:22;;;;;;;0.00;0.00;;;;;;;;;;10529681;28;20056;-61
2021/09/13 17:52:27;;;;;;;0.00;0.00;;;;;;;;;;10495661;28;20469;-61
2021/09/13 17:57:30;;;;;;;0.00;0.00;;;;;;;;;;10509841;28;20050;-62
2021/09/13 18:02:33;;;;;;;0.00;0.00;;;;;;;;;;10511135;28;20049;-64
2021/09/13 18:07:38;;;;;;;0.00;0.00;;;;;;;;;;10516345;28;20119;-65
2021/09/13 18:12:40;;;;;;;0.00;0.00;;;;;;;;;;10517147;28;20055;-62
2021/09/13 18:17:43;;;;;;;0.00;0.00;;;;;;;;;;10507376;28;20414;-64
2021/09/13 18:22:47;;;;;;;0.00;0.00;;;;;;;;;;10518422;28;20505;-65
2021/09/13 18:27:50;;;;;;;0.00;0.00;;;;;;;;;;10518351;28;20133;-62
2021/09/13 18:32:53;;;;;;;0.00;0.00;;;;;;;;;;10518972;28;20040;-64
2021/09/13 18:37:57;;;;;;;0.00;0.00;;;;;;;;;;10500971;28;20394;-65
2021/09/13 18:43:00;;;;;;;0.00;0.00;;;;;;;;;;10516555;28;20844;-64
2021/09/13 18:48:05;;;;;;;0.00;0.00;;;;;;;;;;10520516;28;20032;-66
2021/09/13 18:53:09;;;;;;;0.00;0.00;;;;;;;;;;10517916;28;20150;-65
2021/09/13 18:58:12;;;;;;;0.00;0.00;;;;;;;;;;10514702;28;20043;-66
2021/09/13 19:03:14;;;;;;;0.00;0.00;;;;;;;;;;10517316;28;20152;-67
2021/09/13 19:08:20;;;;;;;0.00;0.00;;;;;;;;;;10499127;28;20044;-64
2021/09/13 19:13:23;;;;;;;0.00;0.00;;;;;;;;;;10514638;28;20450;-69
2021/09/13 19:18:27;;;;;;;0.00;0.00;;;;;;;;;;10517254;28;20151;-67
2021/09/13 19:23:31;;;;;;;0.00;0.00;;;;;;;;;;10515260;28;20068;-65
2021/09/13 19:28:34;;;;;;;0.00;0.00;;;;;;;;;;10516099;28;20043;-65
2021/09/13 19:33:37;;;;;;;0.00;0.00;;;;;;;;;;10498203;28;20887;-64
2021/09/13 19:38:41;;;;;;;0.00;0.00;;;;;;;;;;10517008;28;20052;-64
2021/09/13 19:43:44;;;;;;;0.00;0.00;;;;;;;;;;10512820;28;20055;-66
2021/09/13 19:48:47;;;;;;;0.00;0.00;;;;;;;;;;10518486;28;20040;-65
2021/09/13 19:53:51;;;;;;;0.00;0.00;;;;;;;;;;10514214;28;20051;-65
2021/09/13 19:58:54;;;;;;;0.00;0.00;;;;;;;;;;10514232;28;20400;-67
2021/09/13 20:03:58;;;;;;;0.00;0.00;;;;;;;;;;10520164;28;20040;-65
2021/09/13 20:09:05;;;;;;;0.00;0.00;;;;;;;;;;10506101;28;20074;-65
2021/09/13 20:14:08;;;;;;;0.00;0.00;;;;;;;;;;10498672;28;20076;-64
2021/09/13 20:19:11;;;;;;;0.00;0.00;;;;;;;;;;10492310;28;20054;-63
2021/09/13 20:24:15;;;;;;;0.00;0.00;;;;;;;;;;10513411;28;20560;-64
2021/09/13 20:29:18;;;;;;;0.00;0.00;;;;;;;;;;10512673;28;20044;-63
2021/09/13 20:34:21;;;;;;;0.00;0.00;;;;;;;;;;10509605;28;20462;-63
2021/09/13 20:39:26;;;;;;;0.00;0.00;;;;;;;;;;10512370;28;20124;-62
2021/09/13 20:44:30;;;;;;;0.00;0.00;;;;;;;;;;10510192;28;20493;-62
2021/09/13 20:49:33;;;;;;;0.00;0.00;;;;;;;;;;10511450;28;20401;-63
2021/09/13 20:54:37;;;;;;;0.00;0.00;;;;;;;;;;10494951;28;20040;-62
2021/09/13 20:59:42;;;;;;;0.00;0.00;;;;;;;;;;10510312;28;20036;-63
2021/09/13 21:04:45;;;;;;;0.00;0.00;;;;;;;;;;10491057;28;20044;-65
2021/09/13 21:09:49;;;;;;;0.00;0.00;;;;;;;;;;10511232;28;20113;-64
2021/09/13 21:14:54;;;;;;;0.00;0.00;;;;;;;;;;10511978;28;20151;-63
2021/09/13 21:19:58;;;;;;;0.00;0.00;;;;;;;;;;10509215;28;20032;-63
2021/09/13 21:25:02;;;;;;;0.00;0.00;;;;;;;;;;10510985;28;20154;-63
2021/09/13 21:30:06;;;;;;;0.00;0.00;;;;;;;;;;10509335;28;20055;-63
2021/09/13 21:35:10;;;;;;;0.00;0.00;;;;;;;;;;10492448;28;20063;-63
2021/09/13 21:40:15;;;;;;;0.00;0.00;;;;;;;;;;10512846;28;20135;-62
2021/09/13 21:45:18;;;;;;;0.00;0.00;;;;;;;;;;10516994;28;20032;-63
2021/09/13 21:50:21;;;;;;;0.00;0.00;;;;;;;;;;10519889;28;20040;-63
2021/09/13 21:55:25;;;;;;;0.00;0.00;;;;;;;;;;10499595;28;20048;-62
2021/09/13 22:00:28;;;;;;;0.00;0.00;;;;;;;;;;10517596;28;20046;-62
2021/09/13 22:05:31;;;;;;;0.00;0.00;;;;;;;;;;10516327;28;20055;-62
2021/09/13 22:10:35;;;;;;;0.00;0.00;;;;;;;;;;10515513;28;20130;-63
2021/09/13 22:15:38;;;;;;;0.00;0.00;;;;;;;;;;10516788;28;20055;-62
2021/09/13 22:20:41;;;;;;;0.00;0.00;;;;;;;;;;10532868;28;20056;-62
2021/09/13 22:25:45;;;;;;;0.00;0.00;;;;;;;;;;10514628;28;20124;-62
2021/09/13 22:30:49;;;;;;;0.00;0.00;;;;;;;;;;10500543;28;20040;-63
2021/09/13 22:35:52;;;;;;;0.00;0.00;;;;;;;;;;10518756;28;20072;-62
2021/09/13 22:40:56;;;;;;;0.00;0.00;;;;;;;;;;10495502;28;20580;-62
2021/09/13 22:45:59;;;;;;;0.00;0.00;;;;;;;;;;10518000;28;20543;-62
2021/09/13 22:51:03;;;;;;;0.00;0.00;;;;;;;;;;10521279;28;20535;-64
2021/09/13 22:56:07;;;;;;;0.00;0.00;;;;;;;;;;10518266;28;20073;-63
2021/09/13 23:01:10;;;;;;;0.00;0.00;;;;;;;;;;10499269;28;20054;-63
2021/09/13 23:06:14;;;;;;;0.00;0.00;;;;;;;;;;10500381;28;20068;-63
2021/09/13 23:11:18;;;;;;;0.00;0.00;;;;;;;;;;10496119;28;20402;-63
2021/09/13 23:16:21;;;;;;;0.00;0.00;;;;;;;;;;10475672;28;20482;-63
2021/09/13 23:21:25;;;;;;;0.00;0.00;;;;;;;;;;10466992;28;20041;-63
2021/09/13 23:26:31;;;;;;;0.00;0.00;;;;;;;;;;10463489;28;20153;-63
2021/09/13 23:31:34;;;;;;;0.00;0.00;;;;;;;;;;10471582;28;20058;-63
2021/09/13 23:36:43;;;;;;;0.00;0.00;;;;;;;;;;10472414;28;20129;-63
2021/09/13 23:41:47;;;;;;;0.00;0.00;;;;;;;;;;10478223;28;20453;-63
2021/09/13 23:46:50;;;;;;;0.00;0.00;;;;;;;;;;10463262;28;20072;-63
2021/09/13 23:51:54;;;;;;;0.00;0.00;;;;;;;;;;10473496;28;20033;-63
2021/09/13 23:56:59;;;;;;;0.00;0.00;;;;;;;;;;10487770;28;20055;-63
